createdAt,value
2023-03-12T00:02:25.535Z,99293.88
2023-03-12T00:05:29.445Z,99304.25
2023-03-12T00:08:33.657Z,99299.69
2023-03-12T00:11:39.003Z,99309.44
2023-03-12T00:14:42.207Z,99307.06
2023-03-12T00:17:46.163Z,99310.03
2023-03-12T00:20:55.824Z,99322.59
2023-03-12T00:24:02.246Z,99330.28
2023-03-12T00:27:08.933Z,99336.41
2023-03-12T00:30:13.515Z,99341.44
2023-03-12T00:33:18.535Z,99339.38
2023-03-12T00:36:25.000Z,99332.19
2023-03-12T00:39:29.315Z,99331.22
2023-03-12T00:42:33.197Z,99320.09
2023-03-12T00:45:37.046Z,99303.47
2023-03-12T00:48:42.045Z,99302.38
2023-03-12T00:51:46.774Z,99304.06
2023-03-12T00:54:50.267Z,99300.19
2023-03-12T00:57:53.364Z,99303.00
2023-03-12T01:00:56.836Z,99309.25
2023-03-12T01:04:00.234Z,99312.56
2023-03-12T01:07:03.941Z,99317.88
2023-03-12T01:10:08.353Z,99329.19
2023-03-12T01:13:13.921Z,99336.25
2023-03-12T01:16:17.561Z,99338.44
2023-03-12T01:19:22.609Z,99340.91
2023-03-12T01:22:26.176Z,99336.38
2023-03-12T01:25:33.485Z,99328.97
2023-03-12T01:28:36.965Z,99330.69
2023-03-12T01:31:40.472Z,99338.50
2023-03-12T01:34:44.407Z,99327.84
2023-03-12T01:37:50.984Z,99335.34
2023-03-12T01:40:54.372Z,99344.41
2023-03-12T01:43:57.774Z,99341.94
2023-03-12T01:47:03.550Z,99344.72
2023-03-12T01:50:09.396Z,99345.06
2023-03-12T01:53:17.020Z,99352.87
2023-03-12T01:56:21.409Z,99351.63
2023-03-12T01:59:51.159Z,99349.56
2023-03-12T02:03:01.253Z,99360.50
2023-03-12T02:06:12.216Z,99358.03
2023-03-12T02:09:20.331Z,99365.75
2023-03-12T02:12:24.033Z,99357.59
2023-03-12T02:15:28.520Z,99355.28
2023-03-12T02:18:34.970Z,99362.94
2023-03-12T02:21:38.614Z,99364.97
2023-03-12T02:24:49.015Z,99362.75
2023-03-12T02:27:53.176Z,99372.34
2023-03-12T02:30:59.964Z,99383.72
2023-03-12T02:34:05.979Z,99393.38
2023-03-12T02:37:09.793Z,99399.59
2023-03-12T02:40:18.819Z,99405.44
2023-03-12T02:43:23.548Z,99409.34
2023-03-12T02:46:29.883Z,99413.56
2023-03-12T02:49:35.069Z,99420.16
2023-03-12T02:52:39.215Z,99438.63
2023-03-12T02:55:42.991Z,99420.81
2023-03-12T02:58:47.488Z,99425.41
2023-03-12T03:01:59.610Z,99435.41
2023-03-12T03:05:04.677Z,99429.13
2023-03-12T03:08:09.883Z,99432.31
2023-03-12T03:11:13.709Z,99444.34
2023-03-12T03:14:20.405Z,99436.06
2023-03-12T03:17:24.721Z,99431.75
2023-03-12T03:20:30.200Z,99429.91
2023-03-12T03:23:34.385Z,99434.00
2023-03-12T03:26:38.380Z,99438.97
2023-03-12T03:29:42.406Z,99441.50
2023-03-12T03:32:46.684Z,99455.41
2023-03-12T03:35:50.861Z,99447.47
2023-03-12T03:38:55.948Z,99461.88
2023-03-12T03:42:01.923Z,99462.22
2023-03-12T03:45:07.161Z,99474.66
2023-03-12T03:48:12.944Z,99488.75
2023-03-12T03:51:18.453Z,99474.66
2023-03-12T03:54:22.170Z,99488.78
2023-03-12T03:57:26.889Z,99490.84
2023-03-12T04:00:32.281Z,99504.09
2023-03-12T04:03:37.161Z,99509.19
2023-03-12T04:06:42.078Z,99516.59
2023-03-12T04:09:45.619Z,99513.03
2023-03-12T04:12:49.039Z,99524.78
2023-03-12T04:15:55.296Z,99522.78
2023-03-12T04:18:58.488Z,99539.19
2023-03-12T04:22:02.471Z,99536.25
2023-03-12T04:25:07.627Z,99542.47
2023-03-12T04:28:12.275Z,99536.97
2023-03-12T04:31:15.770Z,99533.72
2023-03-12T04:34:34.865Z,99553.81
2023-03-12T04:37:39.397Z,99554.72
2023-03-12T04:40:48.268Z,99558.66
2023-03-12T04:43:51.431Z,99566.31
2023-03-12T04:47:05.161Z,99572.47
2023-03-12T04:50:09.198Z,99571.28
2023-03-12T04:53:13.197Z,99568.00
2023-03-12T04:56:17.324Z,99572.66
2023-03-12T04:59:23.712Z,99579.72
2023-03-12T05:02:28.325Z,99581.78
2023-03-12T05:05:33.331Z,99584.47
2023-03-12T05:08:36.645Z,99591.34
2023-03-12T05:11:41.654Z,99591.16
2023-03-12T05:14:45.917Z,99587.00
2023-03-12T05:17:49.452Z,99579.81
2023-03-12T05:21:04.610Z,99591.72
2023-03-12T05:24:09.465Z,99587.00
2023-03-12T05:27:13.526Z,99587.91
2023-03-12T05:30:19.225Z,99599.06
2023-03-12T05:33:25.154Z,99606.34
2023-03-12T05:36:31.259Z,99621.72
2023-03-12T05:39:36.195Z,99627.00
2023-03-12T05:42:41.523Z,99628.06
2023-03-12T05:45:44.942Z,99635.97
2023-03-12T05:48:48.248Z,99641.59
2023-03-12T05:51:51.506Z,99646.94
2023-03-12T05:54:56.466Z,99656.16
2023-03-12T05:58:00.963Z,99668.06
2023-03-12T06:01:11.617Z,99680.66
2023-03-12T06:04:16.385Z,99684.34
2023-03-12T06:07:19.580Z,99695.81
2023-03-12T06:10:22.950Z,99699.19
2023-03-12T06:13:28.262Z,99703.41
2023-03-12T06:16:32.157Z,99710.50
2023-03-12T06:19:35.347Z,99719.13
2023-03-12T06:22:38.926Z,99716.59
2023-03-12T06:25:46.258Z,99721.94
2023-03-12T06:28:54.702Z,99731.69
2023-03-12T08:27:48.993Z,99811.25
2023-03-12T08:30:58.689Z,99825.16
2023-03-12T08:34:03.016Z,99834.63
2023-03-12T08:37:10.577Z,99829.25
2023-03-12T08:40:13.740Z,99837.47
2023-03-12T08:43:19.446Z,99828.34
2023-03-12T08:46:22.527Z,99833.53
2023-03-12T08:49:26.092Z,99837.16
2023-03-12T08:52:29.036Z,99830.88
2023-03-12T08:55:32.350Z,99830.09
2023-03-12T08:58:37.681Z,99842.03
2023-03-12T09:01:43.701Z,99835.72
2023-03-12T09:04:51.024Z,99838.22
2023-03-12T09:07:54.914Z,99835.56
2023-03-12T09:10:57.940Z,99841.56
2023-03-12T09:14:39.498Z,99846.28
2023-03-12T09:17:25.409Z,99844.38
2023-03-12T09:20:33.952Z,99834.97
2023-03-12T09:23:40.930Z,99835.47
2023-03-12T09:26:44.390Z,99828.38
2023-03-12T09:29:59.623Z,99824.25
2023-03-12T09:33:05.993Z,99818.81
2023-03-12T09:36:18.444Z,99831.97
2023-03-12T09:39:23.094Z,99833.06
2023-03-12T09:42:38.743Z,99822.69
2023-03-12T09:45:44.078Z,99828.50
2023-03-12T09:48:50.568Z,99827.41
2023-03-12T09:52:14.038Z,99816.03
2023-03-12T09:59:28.475Z,99824.63
2023-03-12T10:11:53.876Z,99832.03
2023-03-12T10:15:50.042Z,99825.94
2023-03-12T10:23:54.860Z,99828.56
2023-03-12T10:27:38.996Z,99826.25
2023-03-12T10:35:14.407Z,99845.19
2023-03-12T10:38:28.662Z,99836.13
2023-03-12T10:41:47.805Z,99833.50
2023-03-12T11:06:40.116Z,99831.25
2023-03-12T11:14:31.540Z,99853.09
2023-03-12T11:17:35.315Z,99840.87
2023-03-12T11:46:17.269Z,99845.06
2023-03-12T12:02:25.615Z,99829.97
2023-03-12T12:12:11.415Z,99822.94
2023-03-12T16:14:28.469Z,99822.16
2023-03-12T16:17:34.400Z,99824.84
2023-03-12T16:20:40.007Z,99824.72
2023-03-12T16:23:45.412Z,99832.00
2023-03-12T16:27:07.585Z,99820.34
2023-03-12T16:30:15.752Z,99826.13
2023-03-12T16:33:22.577Z,99826.69
2023-03-12T16:36:28.010Z,99824.47
2023-03-12T16:39:33.917Z,99836.53
2023-03-12T16:42:42.219Z,99839.22
2023-03-12T16:45:47.235Z,99840.16
2023-03-12T16:48:54.204Z,99841.69
2023-03-12T16:51:58.943Z,99837.19
2023-03-12T16:55:03.853Z,99843.53
2023-03-12T16:58:12.770Z,99841.63
2023-03-12T17:01:20.221Z,99849.69
2023-03-12T17:04:24.557Z,99846.03
2023-03-12T17:07:30.397Z,99843.00
2023-03-12T17:10:42.589Z,99843.53
2023-03-12T17:13:52.972Z,99849.97
2023-03-12T17:16:58.390Z,99845.94
2023-03-12T17:20:07.850Z,99850.38
2023-03-12T17:23:12.130Z,99852.59
2023-03-12T17:26:18.189Z,99851.72
2023-03-12T17:29:22.885Z,99843.31
2023-03-12T17:32:31.093Z,99853.84
2023-03-12T17:35:36.881Z,99858.91
2023-03-12T17:38:41.663Z,99843.84
2023-03-12T17:41:46.138Z,99853.66
2023-03-12T17:44:51.387Z,99846.88
2023-03-12T17:47:58.145Z,99852.09
2023-03-12T17:51:12.118Z,99841.53
2023-03-12T17:54:22.595Z,99842.31
2023-03-12T17:57:27.800Z,99845.06
2023-03-12T18:00:34.116Z,99845.00
2023-03-12T18:03:40.198Z,99844.25
2023-03-12T18:06:45.134Z,99846.81
2023-03-12T18:09:55.891Z,99849.31
2023-03-12T18:13:01.400Z,99855.72
2023-03-12T18:16:07.696Z,99856.72
2023-03-12T18:19:13.605Z,99858.22
2023-03-12T18:22:20.762Z,99865.06
2023-03-12T18:25:25.585Z,99876.34
2023-03-12T18:28:35.349Z,99876.12
2023-03-12T18:31:39.797Z,99867.62
2023-03-12T18:34:51.574Z,99870.38
2023-03-12T18:37:59.570Z,99870.75
2023-03-12T18:41:11.216Z,99870.31
2023-03-12T18:44:16.443Z,99876.34
2023-03-12T18:47:23.203Z,99861.56
2023-03-12T18:50:28.866Z,99854.47
2023-03-12T18:53:34.745Z,99852.25
2023-03-12T18:56:45.554Z,99853.97
2023-03-12T18:59:52.239Z,99843.16
2023-03-12T19:02:58.092Z,99833.22
2023-03-12T19:06:08.401Z,99844.69
2023-03-12T19:09:14.696Z,99853.75
2023-03-12T19:12:20.334Z,99860.31
2023-03-12T19:15:24.732Z,99862.06
2023-03-12T19:18:31.400Z,99863.50
2023-03-12T19:21:35.820Z,99875.19
2023-03-12T19:24:47.098Z,99889.31
2023-03-12T19:27:51.100Z,99897.75
2023-03-12T19:31:06.709Z,99898.44
2023-03-12T19:34:12.302Z,99888.34
2023-03-12T19:37:18.193Z,99894.19
2023-03-12T19:40:24.709Z,99890.31
2023-03-12T19:43:29.244Z,99890.75
2023-03-12T19:46:43.325Z,99901.97
2023-03-12T19:49:51.611Z,99902.34
2023-03-12T19:52:58.711Z,99902.78
2023-03-12T19:56:06.464Z,99902.94
2023-03-12T19:59:12.503Z,99901.84
2023-03-12T20:02:20.060Z,99899.22
2023-03-12T20:05:25.849Z,99896.13
2023-03-12T20:08:32.918Z,99892.84
2023-03-12T20:11:37.567Z,99888.72
2023-03-12T20:14:42.953Z,99900.66
2023-03-12T20:17:48.269Z,99890.94
2023-03-12T20:20:55.889Z,99896.66
2023-03-12T20:28:45.892Z,99877.94
2023-03-12T20:31:52.741Z,99879.19
2023-03-12T20:34:57.329Z,99891.03
2023-03-12T20:38:02.726Z,99896.41
2023-03-12T20:41:12.658Z,99912.78
2023-03-12T20:44:19.745Z,99913.69
2023-03-12T20:47:27.869Z,99924.44
2023-03-12T20:50:43.886Z,99919.91
2023-03-12T20:53:50.099Z,99917.50
2023-03-12T20:57:03.838Z,99904.78
2023-03-12T21:00:09.449Z,99909.84
2023-03-12T21:03:23.423Z,99914.66
2023-03-12T21:06:32.786Z,99913.88
2023-03-12T21:09:41.727Z,99912.84
2023-03-12T21:12:46.841Z,99917.59
2023-03-12T21:15:51.598Z,99912.75
2023-03-12T21:19:00.574Z,99913.03
2023-03-12T21:22:08.700Z,99906.06
2023-03-12T21:25:13.986Z,99918.53
2023-03-12T21:28:18.368Z,99918.13
2023-03-12T21:31:33.375Z,99910.78
2023-03-12T21:34:47.287Z,99904.63
2023-03-12T21:38:07.811Z,99898.59
2023-03-12T21:41:19.520Z,99894.50
2023-03-12T21:44:25.813Z,99899.91
2023-03-12T21:47:34.602Z,99897.69
2023-03-12T21:50:50.376Z,99890.59
2023-03-12T21:53:55.060Z,99893.87
2023-03-12T21:57:31.039Z,99887.13
2023-03-12T22:00:45.208Z,99888.56
2023-03-12T22:03:49.104Z,99894.06
2023-03-12T22:06:52.372Z,99885.25
2023-03-12T22:09:57.306Z,99883.38
2023-03-12T22:13:02.629Z,99888.75
2023-03-12T22:16:11.595Z,99890.22
2023-03-12T22:24:10.086Z,99884.06
2023-03-12T22:27:13.649Z,99905.75
2023-03-12T22:30:34.752Z,99920.88
2023-03-12T22:33:38.450Z,99915.06
2023-03-12T22:36:47.138Z,99908.47
2023-03-12T22:39:58.304Z,99902.78
2023-03-12T22:43:04.193Z,99908.34
2023-03-12T22:49:17.231Z,99910.84
2023-03-12T22:52:20.572Z,99906.56
2023-03-12T22:55:32.034Z,99909.03
2023-03-12T23:02:46.151Z,99919.03
2023-03-12T23:05:59.744Z,99918.19
2023-03-12T23:09:29.575Z,99916.06
2023-03-12T23:12:34.232Z,99925.47
2023-03-12T23:15:41.715Z,99932.00
2023-03-12T23:18:59.986Z,99923.47
2023-03-12T23:22:40.537Z,99919.31
2023-03-12T23:26:06.666Z,99926.47
2023-03-12T23:29:13.463Z,99928.50
2023-03-12T23:32:20.187Z,99932.16
2023-03-12T23:35:23.788Z,99931.84
2023-03-12T23:38:38.215Z,99938.00
2023-03-12T23:41:44.293Z,99944.47
2023-03-12T23:49:27.150Z,99956.53
2023-03-12T23:52:30.579Z,99956.75
2023-03-12T23:55:58.591Z,99945.94
2023-03-12T23:59:05.323Z,99952.03
